Time;durP1;ratioP1;P1;durP2;ratioP2;P2;SDS_P1;SDS_P2;PMS_P1;PMS_P2;Temp;Humidity;BMP_temperature;BMP_pressure;BME280_temperature;BME280_humidity;BME280_pressure;Samples;Min_cycle;Max_cycle;Signal;HPM_P1;HPM_P2
2023/02/04 00:02:26;;;;;;;17.43;10.23;;;8.30;99.90;;;;;;5039137;28;20474;-74
2023/02/04 00:04:53;;;;;;;21.23;9.17;;;8.30;99.90;;;;;;5034108;28;20970;-72
2023/02/04 00:07:22;;;;;;;16.90;8.73;;;8.20;99.90;;;;;;5040394;28;20464;-74
2023/02/04 00:09:49;;;;;;;12.53;8.67;;;8.20;99.90;;;;;;5042524;28;20499;-74
2023/02/04 00:12:16;;;;;;;13.07;8.43;;;8.10;99.90;;;;;;5040136;28;20479;-73
2023/02/04 00:14:43;;;;;;;21.27;8.30;;;8.00;99.90;;;;;;5037422;28;20475;-71
2023/02/04 00:17:11;;;;;;;21.80;9.23;;;7.90;99.90;;;;;;5037036;28;20944;-74
2023/02/04 00:19:39;;;;;;;18.53;9.60;;;7.90;99.90;;;;;;5041196;28;20984;-71
2023/02/04 00:22:07;;;;;;;21.20;8.80;;;7.90;99.90;;;;;;5038007;28;20508;-74
2023/02/04 00:24:37;;;;;;;14.90;8.87;;;7.80;99.90;;;;;;5041971;28;20546;-73
2023/02/04 00:27:05;;;;;;;24.70;9.23;;;7.80;99.90;;;;;;5040410;28;20829;-71
2023/02/04 00:29:32;;;;;;;15.33;9.00;;;7.70;99.90;;;;;;5042631;28;20646;-72
2023/02/04 00:32:00;;;;;;;16.97;7.47;;;7.70;99.90;;;;;;5038001;28;20452;-73
2023/02/04 00:34:27;;;;;;;17.30;7.63;;;7.70;99.90;;;;;;5039572;28;20465;-72
2023/02/04 00:36:53;;;;;;;19.30;8.50;;;7.70;99.90;;;;;;5034867;28;20986;-72
2023/02/04 00:39:20;;;;;;;19.90;8.00;;;7.70;99.90;;;;;;5039421;28;20836;-72
2023/02/04 00:41:48;;;;;;;19.40;8.07;;;7.80;99.90;;;;;;5038986;28;20871;-73
2023/02/04 00:44:16;;;;;;;16.10;8.43;;;7.80;99.90;;;;;;5037989;28;20466;-74
2023/02/04 00:46:43;;;;;;;15.03;7.67;;;7.80;99.90;;;;;;5038807;28;20950;-73
2023/02/04 00:49:11;;;;;;;15.57;8.43;;;7.80;99.90;;;;;;5040480;28;20488;-73
2023/02/04 00:51:39;;;;;;;18.20;8.20;;;7.70;99.90;;;;;;5036051;28;20556;-75
2023/02/04 00:54:06;;;;;;;10.47;7.67;;;7.70;99.90;;;;;;5036559;28;20459;-74
2023/02/04 00:56:33;;;;;;;14.03;8.33;;;7.70;99.90;;;;;;5040174;28;20463;-71
2023/02/04 00:59:02;;;;;;;15.80;8.43;;;7.80;99.90;;;;;;5034204;28;20491;-71
2023/02/04 01:01:29;;;;;;;9.47;6.47;;;7.80;99.90;;;;;;5039680;28;20474;-70
2023/02/04 01:03:57;;;;;;;10.93;7.20;;;7.80;99.90;;;;;;5038317;28;21017;-70
2023/02/04 01:06:23;;;;;;;9.90;7.40;;;7.90;99.90;;;;;;5040623;28;20455;-75
2023/02/04 01:08:51;;;;;;;15.00;7.17;;;7.80;99.90;;;;;;5037484;28;20498;-71
2023/02/04 01:11:18;;;;;;;20.57;8.30;;;7.80;99.90;;;;;;5039464;28;20460;-73
2023/02/04 01:13:44;;;;;;;17.33;8.00;;;7.80;99.90;;;;;;5037477;28;20472;-71
2023/02/04 01:16:13;;;;;;;16.00;8.23;;;7.80;99.90;;;;;;5037182;28;20467;-72
2023/02/04 01:18:41;;;;;;;20.80;8.97;;;7.80;99.90;;;;;;5039661;28;20481;-75
2023/02/04 01:21:08;;;;;;;19.40;8.80;;;7.80;99.90;;;;;;5035210;28;20464;-71
2023/02/04 01:23:34;;;;;;;12.87;8.13;;;7.80;99.90;;;;;;5037316;28;20477;-73
2023/02/04 01:26:01;;;;;;;15.77;8.93;;;7.80;99.90;;;;;;5042575;28;20469;-72
2023/02/04 01:28:28;;;;;;;24.03;8.73;;;7.90;99.90;;;;;;5041680;28;20483;-71
2023/02/04 01:30:56;;;;;;;15.03;8.50;;;7.90;99.90;;;;;;5035934;28;20465;-71
2023/02/04 01:33:24;;;;;;;16.47;8.50;;;7.90;99.90;;;;;;5041034;28;20463;-74
2023/02/04 01:35:51;;;;;;;16.63;7.90;;;7.90;99.90;;;;;;5035692;28;20490;-74
2023/02/04 01:38:18;;;;;;;15.77;8.20;;;7.70;99.90;;;;;;5039370;28;20486;-70
2023/02/04 01:40:45;;;;;;;25.80;8.20;;;7.70;99.90;;;;;;5043411;28;20460;-73
2023/02/04 01:43:12;;;;;;;15.57;7.50;;;7.60;99.90;;;;;;5043628;28;20592;-73
2023/02/04 01:45:40;;;;;;;19.97;8.30;;;7.50;99.90;;;;;;5038684;28;20829;-73
2023/02/04 01:48:08;;;;;;;32.10;8.93;;;7.60;99.90;;;;;;5041584;28;20470;-75
2023/02/04 01:50:36;;;;;;;16.00;8.00;;;7.60;99.90;;;;;;5043687;28;20901;-73
2023/02/04 01:53:03;;;;;;;8.70;6.93;;;7.50;99.90;;;;;;5045057;28;20465;-71
2023/02/04 01:55:32;;;;;;;19.87;7.63;;;7.60;99.90;;;;;;5041630;28;20467;-74
2023/02/04 01:58:01;;;;;;;20.80;7.90;;;7.60;99.90;;;;;;5045615;28;20487;-74
2023/02/04 02:00:31;;;;;;;16.93;8.67;;;7.60;99.90;;;;;;5041728;28;20470;-73
2023/02/04 02:02:58;;;;;;;16.70;8.00;;;7.50;99.90;;;;;;5045657;28;20464;-74
2023/02/04 02:05:29;;;;;;;13.80;8.33;;;7.40;99.90;;;;;;5044012;28;20478;-73
2023/02/04 02:07:58;;;;;;;17.87;8.13;;;7.40;99.90;;;;;;5044792;28;20673;-73
2023/02/04 02:10:26;;;;;;;13.43;7.33;;;7.40;99.90;;;;;;5042775;28;20837;-74
2023/02/04 02:12:55;;;;;;;17.70;9.50;;;7.30;99.90;;;;;;5038494;28;20558;-74
2023/02/04 02:15:23;;;;;;;15.90;10.13;;;7.40;99.90;;;;;;5043732;28;20860;-71
2023/02/04 02:17:51;;;;;;;15.00;7.50;;;7.30;99.90;;;;;;5041192;28;21040;-72
2023/02/04 02:20:21;;;;;;;18.57;8.37;;;7.30;99.90;;;;;;5047099;28;20460;-72
2023/02/04 02:22:57;;;;;;;13.27;7.80;;;7.20;99.90;;;;;;5044529;28;20459;-73
2023/02/04 02:25:26;;;;;;;19.03;9.00;;;7.20;99.90;;;;;;5042452;28;20463;-72
2023/02/04 02:27:53;;;;;;;16.40;7.87;;;7.20;99.90;;;;;;5042301;28;20723;-72
2023/02/04 02:30:20;;;;;;;21.03;9.57;;;7.20;99.90;;;;;;5036726;28;20488;-71
2023/02/04 02:32:48;;;;;;;18.40;8.00;;;7.20;99.90;;;;;;5038375;28;20455;-75
2023/02/04 02:35:15;;;;;;;24.30;8.50;;;7.20;99.90;;;;;;5039255;28;20457;-71
2023/02/04 02:37:43;;;;;;;22.10;7.93;;;7.20;99.90;;;;;;5043077;28;20522;-72
2023/02/04 02:40:11;;;;;;;20.50;7.37;;;7.20;99.90;;;;;;5041463;28;20850;-74
2023/02/04 02:42:40;;;;;;;20.53;7.97;;;7.10;99.90;;;;;;5044784;28;20467;-73
2023/02/04 02:45:12;;;;;;;10.10;7.17;;;7.10;99.90;;;;;;5038782;28;20467;-70
2023/02/04 02:47:40;;;;;;;21.67;8.10;;;7.00;99.90;;;;;;5041321;28;20566;-73
2023/02/04 02:50:11;;;;;;;28.77;8.03;;;7.00;99.90;;;;;;5038743;28;20969;-74
2023/02/04 02:52:38;;;;;;;10.63;6.97;;;6.90;99.90;;;;;;5043564;28;20456;-72
2023/02/04 02:55:05;;;;;;;15.53;8.17;;;7.00;99.90;;;;;;5043049;28;20690;-74
2023/02/04 02:57:32;;;;;;;18.37;7.00;;;7.00;99.90;;;;;;5039816;28;20483;-72
2023/02/04 03:00:02;;;;;;;22.77;6.93;;;6.90;99.90;;;;;;5040138;28;20475;-73
2023/02/04 03:02:29;;;;;;;18.17;7.50;;;6.90;99.90;;;;;;5040631;28;20478;-71
2023/02/04 03:04:59;;;;;;;15.83;7.90;;;6.90;99.90;;;;;;5044167;28;20485;-71
2023/02/04 03:07:26;;;;;;;23.63;7.27;;;6.90;99.90;;;;;;5040560;28;20475;-73
2023/02/04 03:09:53;;;;;;;17.03;6.67;;;6.80;99.90;;;;;;5040779;28;20497;-74
2023/02/04 03:12:20;;;;;;;10.40;6.60;;;6.80;99.90;;;;;;5040644;28;20558;-74
2023/02/04 03:14:47;;;;;;;12.93;6.47;;;6.80;99.90;;;;;;5039352;28;20939;-73
2023/02/04 03:17:16;;;;;;;22.50;7.20;;;6.80;99.90;;;;;;5038037;28;20964;-72
2023/02/04 03:19:43;;;;;;;24.97;6.70;;;6.90;99.90;;;;;;5037797;28;20467;-72
2023/02/04 03:22:11;;;;;;;17.13;6.47;;;6.80;99.90;;;;;;5039183;28;20474;-71
2023/02/04 03:24:38;;;;;;;17.03;7.00;;;6.90;99.90;;;;;;5040229;28;20842;-73
2023/02/04 03:27:05;;;;;;;21.17;7.10;;;6.80;99.90;;;;;;5040567;28;20464;-72
2023/02/04 03:29:32;;;;;;;14.40;6.53;;;6.70;99.90;;;;;;5039500;28;20495;-74
2023/02/04 03:32:00;;;;;;;21.03;7.20;;;6.70;99.90;;;;;;5037310;28;20769;-74
2023/02/04 03:34:28;;;;;;;16.57;7.40;;;6.70;99.90;;;;;;5040465;28;20472;-72
2023/02/04 03:36:54;;;;;;;19.37;7.27;;;6.60;99.90;;;;;;5039468;28;20506;-74
2023/02/04 03:39:22;;;;;;;18.73;7.43;;;6.50;99.90;;;;;;5042355;28;20463;-72
2023/02/04 03:41:48;;;;;;;10.53;6.87;;;6.50;99.90;;;;;;5039351;28;20455;-74
2023/02/04 03:44:15;;;;;;;13.00;8.20;;;6.30;99.90;;;;;;5047097;28;20449;-72
2023/02/04 03:46:42;;;;;;;13.03;7.23;;;6.20;99.90;;;;;;5041318;28;20463;-73
2023/02/04 03:49:09;;;;;;;15.13;7.00;;;6.20;99.90;;;;;;5037375;28;20488;-73
2023/02/04 03:51:37;;;;;;;23.37;8.20;;;6.30;99.90;;;;;;5038218;28;20481;-71
2023/02/04 03:54:05;;;;;;;29.37;7.30;;;6.30;99.90;;;;;;5034442;28;20992;-73
2023/02/04 03:56:32;;;;;;;16.20;7.13;;;6.30;99.90;;;;;;5031976;28;20470;-72
2023/02/04 03:58:59;;;;;;;19.60;6.73;;;6.20;99.90;;;;;;5040228;28;20989;-71
2023/02/04 04:01:25;;;;;;;17.10;6.90;;;6.30;99.90;;;;;;5036625;28;20452;-71
2023/02/04 04:03:53;;;;;;;10.73;6.43;;;6.30;99.90;;;;;;5038323;28;20483;-74
2023/02/04 04:06:20;;;;;;;20.83;6.60;;;6.30;99.90;;;;;;5035004;28;20473;-72
2023/02/04 04:08:49;;;;;;;14.83;7.30;;;6.30;99.90;;;;;;5034042;28;20969;-74
2023/02/04 04:11:16;;;;;;;24.47;7.90;;;6.30;99.90;;;;;;5038038;28;20466;-70
2023/02/04 04:13:42;;;;;;;21.73;7.60;;;6.30;99.90;;;;;;5042805;28;20468;-74
2023/02/04 04:16:09;;;;;;;10.27;6.80;;;6.30;99.90;;;;;;5039751;28;20888;-71
2023/02/04 04:18:36;;;;;;;16.20;7.53;;;6.30;99.90;;;;;;5039890;28;20498;-72
2023/02/04 04:21:03;;;;;;;21.87;7.97;;;6.30;99.90;;;;;;5038195;28;20978;-72
2023/02/04 04:23:30;;;;;;;13.23;7.80;;;6.20;99.90;;;;;;5039929;28;20849;-70
2023/02/04 04:25:58;;;;;;;27.93;7.97;;;6.30;99.90;;;;;;5040556;28;20862;-73
2023/02/04 04:28:25;;;;;;;14.57;6.33;;;6.40;99.90;;;;;;5038541;28;20460;-71
2023/02/04 04:30:52;;;;;;;20.60;7.10;;;6.40;99.90;;;;;;5036214;28;20569;-72
2023/02/04 04:33:18;;;;;;;23.10;7.50;;;6.50;99.90;;;;;;5036951;28;20546;-71
2023/02/04 04:35:45;;;;;;;11.90;7.70;;;6.50;99.90;;;;;;5036923;28;20464;-72
2023/02/04 04:38:12;;;;;;;27.87;8.30;;;6.50;99.90;;;;;;5043485;28;21024;-74
2023/02/04 04:40:40;;;;;;;15.50;7.10;;;6.50;99.90;;;;;;5037445;28;20457;-73
2023/02/04 04:43:08;;;;;;;15.63;6.97;;;6.40;99.90;;;;;;5035492;28;20700;-72
2023/02/04 04:45:35;;;;;;;14.97;8.20;;;6.30;99.90;;;;;;5037874;28;20960;-71
2023/02/04 04:48:02;;;;;;;28.07;8.10;;;6.30;99.90;;;;;;5036649;28;20834;-72
2023/02/04 04:50:29;;;;;;;20.63;7.33;;;6.40;99.90;;;;;;5044172;28;20495;-72
2023/02/04 04:52:56;;;;;;;17.90;8.00;;;6.40;99.90;;;;;;5039249;28;20498;-74
2023/02/04 04:55:23;;;;;;;19.30;8.70;;;6.40;99.90;;;;;;5036597;28;20490;-74
2023/02/04 04:57:50;;;;;;;19.10;7.47;;;6.40;99.90;;;;;;5040384;28;20488;-72
2023/02/04 05:00:20;;;;;;;16.83;7.33;;;6.40;99.90;;;;;;5035867;28;20471;-73
2023/02/04 05:02:47;;;;;;;16.23;8.10;;;6.40;99.90;;;;;;5039156;28;20459;-71
2023/02/04 05:05:14;;;;;;;26.63;8.57;;;6.40;99.90;;;;;;5037720;28;20942;-73
2023/02/04 05:07:41;;;;;;;24.83;7.90;;;6.40;99.90;;;;;;5036594;28;20824;-70
2023/02/04 05:10:08;;;;;;;21.87;7.40;;;6.40;99.90;;;;;;5041728;28;20612;-72
2023/02/04 05:12:35;;;;;;;18.53;7.87;;;6.50;99.90;;;;;;5042769;28;20467;-73
2023/02/04 05:15:02;;;;;;;11.87;7.60;;;6.50;99.90;;;;;;5042826;28;20459;-72
2023/02/04 05:17:30;;;;;;;17.00;8.20;;;6.50;99.90;;;;;;5042339;28;21002;-74
2023/02/04 05:19:56;;;;;;;21.77;8.70;;;6.60;99.90;;;;;;5046090;28;20947;-72
2023/02/04 05:22:23;;;;;;;16.07;7.70;;;6.60;99.90;;;;;;5045608;28;20976;-72
2023/02/04 05:24:50;;;;;;;17.73;7.63;;;6.60;99.90;;;;;;5041409;28;20476;-74
2023/02/04 05:27:18;;;;;;;29.47;9.50;;;6.60;99.90;;;;;;5044890;28;20814;-72
2023/02/04 05:29:45;;;;;;;20.27;8.80;;;6.60;99.90;;;;;;5045231;28;20553;-71
2023/02/04 05:32:12;;;;;;;21.43;8.30;;;6.70;99.90;;;;;;5043884;28;20509;-74
2023/02/04 05:34:41;;;;;;;28.23;7.70;;;6.70;99.90;;;;;;5044279;28;20466;-74
2023/02/04 05:37:07;;;;;;;17.73;8.40;;;6.60;99.90;;;;;;5043600;28;21042;-71
2023/02/04 05:39:34;;;;;;;29.27;10.23;;;6.60;99.90;;;;;;5042390;28;20515;-73
2023/02/04 05:42:01;;;;;;;15.00;7.20;;;6.50;99.90;;;;;;5044467;28;21120;-72
2023/02/04 05:44:29;;;;;;;15.27;7.60;;;6.60;99.90;;;;;;5042683;28;20813;-72
2023/02/04 05:46:56;;;;;;;20.63;8.43;;;6.50;99.90;;;;;;5043946;28;20521;-72
2023/02/04 05:49:23;;;;;;;13.13;7.87;;;6.50;99.90;;;;;;5043087;28;20547;-73
2023/02/04 05:51:51;;;;;;;9.70;7.10;;;6.50;99.90;;;;;;5041493;28;20490;-73
2023/02/04 05:54:19;;;;;;;15.50;8.60;;;6.50;99.90;;;;;;5041259;28;20985;-74
2023/02/04 05:56:47;;;;;;;18.83;8.77;;;6.50;99.90;;;;;;5038064;28;20972;-72
2023/02/04 05:59:13;;;;;;;17.93;8.07;;;6.50;99.90;;;;;;5043617;28;21121;-73
2023/02/04 06:01:40;;;;;;;14.60;8.03;;;6.50;99.90;;;;;;5043746;28;20468;-72
2023/02/04 06:04:07;;;;;;;15.97;8.43;;;6.50;99.90;;;;;;5042976;28;20489;-72
2023/02/04 06:06:34;;;;;;;17.50;8.73;;;6.50;99.90;;;;;;5039288;28;20463;-71
2023/02/04 06:09:02;;;;;;;16.93;8.60;;;6.50;99.90;;;;;;5042123;28;21015;-72
2023/02/04 06:11:30;;;;;;;17.70;8.03;;;6.60;99.90;;;;;;5043192;28;20884;-75
2023/02/04 06:13:57;;;;;;;17.63;7.37;;;6.70;99.90;;;;;;5045178;28;20463;-73
2023/02/04 06:16:24;;;;;;;12.90;7.80;;;6.70;99.90;;;;;;5039493;28;20468;-70
2023/02/04 06:18:51;;;;;;;29.93;8.67;;;6.70;99.90;;;;;;5044788;28;20468;-73
2023/02/04 06:21:18;;;;;;;15.10;7.80;;;6.70;99.90;;;;;;5042518;28;20547;-71
2023/02/04 06:23:45;;;;;;;14.60;8.27;;;6.70;99.90;;;;;;5040319;28;20470;-71
2023/02/04 06:26:14;;;;;;;25.73;8.67;;;6.70;99.90;;;;;;5040537;28;20765;-73
2023/02/04 06:28:41;;;;;;;25.67;8.90;;;6.80;99.90;;;;;;5040228;28;20468;-74
2023/02/04 06:31:08;;;;;;;10.33;7.80;;;6.80;99.90;;;;;;5043817;28;20502;-75
2023/02/04 06:33:36;;;;;;;10.50;8.07;;;6.80;99.90;;;;;;5039502;28;20493;-74
2023/02/04 06:36:03;;;;;;;16.50;9.27;;;6.70;99.90;;;;;;5037974;28;21080;-73
2023/02/04 06:38:30;;;;;;;18.53;9.53;;;6.70;99.90;;;;;;5041392;28;20942;-74
2023/02/04 06:40:57;;;;;;;19.23;8.87;;;6.80;99.90;;;;;;5042005;28;20467;-73
2023/02/04 06:43:26;;;;;;;16.40;7.90;;;6.80;99.90;;;;;;5040374;28;20853;-72
2023/02/04 06:45:53;;;;;;;18.07;9.20;;;6.80;99.90;;;;;;5036665;28;20476;-74
2023/02/04 06:48:21;;;;;;;10.50;7.30;;;6.80;99.90;;;;;;5038791;28;20460;-71
2023/02/04 06:50:47;;;;;;;18.07;9.60;;;6.90;99.90;;;;;;5042478;28;21028;-72
2023/02/04 06:53:14;;;;;;;30.53;10.17;;;6.80;99.90;;;;;;5037143;28;20529;-72
2023/02/04 06:55:42;;;;;;;20.23;10.30;;;6.70;99.90;;;;;;5041610;28;20467;-74
2023/02/04 06:58:09;;;;;;;15.57;9.60;;;6.70;99.90;;;;;;5040233;28;20586;-72
2023/02/04 07:00:37;;;;;;;16.80;9.23;;;6.60;99.90;;;;;;5044802;28;20554;-75
2023/02/04 07:03:06;;;;;;;19.23;8.87;;;6.60;99.90;;;;;;5039054;28;20469;-73
2023/02/04 07:05:34;;;;;;;19.93;9.07;;;6.60;99.90;;;;;;5038264;28;20510;-71
2023/02/04 07:08:01;;;;;;;27.43;9.53;;;6.70;99.90;;;;;;5037896;28;20460;-74
2023/02/04 07:10:27;;;;;;;33.03;11.00;;;6.60;99.90;;;;;;5043137;28;20494;-73
2023/02/04 07:12:54;;;;;;;19.10;10.07;;;6.50;99.90;;;;;;5043864;28;20473;-74
2023/02/04 07:15:21;;;;;;;23.00;9.27;;;6.50;99.90;;;;;;5041862;28;20876;-72
2023/02/04 07:17:50;;;;;;;22.13;10.60;;;6.50;99.90;;;;;;5040944;28;20471;-75
2023/02/04 07:20:17;;;;;;;18.87;9.93;;;6.50;99.90;;;;;;5037165;28;20496;-72
2023/02/04 07:22:45;;;;;;;18.33;10.80;;;6.60;99.90;;;;;;5037999;28;21013;-75
2023/02/04 07:25:13;;;;;;;22.77;11.37;;;6.60;99.90;;;;;;5036321;28;20467;-72
2023/02/04 07:27:41;;;;;;;21.27;9.73;;;6.60;99.90;;;;;;5045970;28;20509;-75
2023/02/04 07:30:10;;;;;;;17.20;10.13;;;6.70;99.90;;;;;;5039534;28;20991;-75
2023/02/04 07:32:36;;;;;;;22.63;11.40;;;6.70;99.90;;;;;;5036827;28;20467;-71
2023/02/04 07:35:05;;;;;;;22.17;10.00;;;6.80;99.90;;;;;;5037570;28;20895;-72
2023/02/04 07:37:32;;;;;;;14.17;9.53;;;6.80;99.90;;;;;;5040778;28;20502;-71
2023/02/04 07:40:00;;;;;;;21.40;11.63;;;6.80;99.90;;;;;;5042092;28;20980;-71
2023/02/04 07:42:27;;;;;;;23.97;10.77;;;6.80;99.90;;;;;;5036058;28;20494;-74
2023/02/04 07:44:53;;;;;;;21.77;10.27;;;6.80;99.90;;;;;;5039068;28;20498;-74
2023/02/04 07:47:21;;;;;;;24.93;12.07;;;6.80;99.90;;;;;;5040132;28;20950;-72
2023/02/04 07:49:47;;;;;;;28.60;11.50;;;6.80;99.90;;;;;;5036392;28;20462;-72
2023/02/04 07:52:16;;;;;;;26.57;12.27;;;6.90;99.90;;;;;;5046480;28;20492;-73
2023/02/04 07:54:43;;;;;;;24.27;11.90;;;6.90;99.90;;;;;;5043151;28;20494;-74
2023/02/04 07:57:09;;;;;;;22.70;12.97;;;6.90;99.90;;;;;;5041397;28;20468;-74
2023/02/04 07:59:36;;;;;;;26.20;12.87;;;6.90;99.90;;;;;;5040152;28;20485;-74
2023/02/04 08:02:03;;;;;;;29.43;13.33;;;6.80;99.90;;;;;;5040201;28;20550;-73
2023/02/04 08:04:31;;;;;;;39.87;14.47;;;6.80;99.90;;;;;;5043944;28;20546;-72
2023/02/04 08:06:58;;;;;;;23.90;13.20;;;6.90;99.90;;;;;;5041146;28;20977;-74
2023/02/04 08:09:27;;;;;;;31.23;14.67;;;6.90;99.90;;;;;;5043754;28;20467;-73
2023/02/04 08:11:53;;;;;;;33.77;13.30;;;6.90;99.90;;;;;;5039749;28;20498;-72
2023/02/04 08:14:21;;;;;;;34.03;13.63;;;7.00;99.90;;;;;;5039049;28;20499;-74
2023/02/04 08:16:47;;;;;;;29.67;12.90;;;7.10;99.90;;;;;;5038542;28;20990;-71
2023/02/04 08:19:17;;;;;;;24.93;13.17;;;7.10;99.90;;;;;;5042813;28;20464;-72
2023/02/04 08:21:44;;;;;;;43.23;14.03;;;7.10;99.90;;;;;;5037121;28;21001;-72
2023/02/04 08:24:11;;;;;;;34.47;13.63;;;7.20;99.90;;;;;;5038336;28;20463;-73
2023/02/04 08:26:39;;;;;;;38.53;15.80;;;7.30;99.90;;;;;;5033610;28;20460;-72
2023/02/04 08:29:06;;;;;;;22.97;13.30;;;7.30;99.90;;;;;;5035266;28;20468;-71
2023/02/04 08:31:33;;;;;;;29.67;13.57;;;7.30;99.90;;;;;;5040301;28;20491;-74
2023/02/04 08:34:00;;;;;;;28.07;13.53;;;7.50;99.90;;;;;;5041649;28;20478;-73
2023/02/04 08:36:27;;;;;;;48.83;15.40;;;7.40;99.90;;;;;;5041591;28;20487;-75
2023/02/04 08:38:54;;;;;;;38.00;14.23;;;7.50;99.90;;;;;;5042162;28;20499;-71
2023/02/04 08:41:21;;;;;;;37.60;15.23;;;7.50;99.90;;;;;;5037421;28;20463;-73
2023/02/04 08:43:49;;;;;;;36.80;15.47;;;7.50;99.90;;;;;;5040676;28;20456;-73
2023/02/04 08:46:17;;;;;;;32.40;13.20;;;7.40;99.90;;;;;;5038339;28;20455;-73
2023/02/04 08:48:44;;;;;;;31.50;14.90;;;7.40;99.90;;;;;;5041106;28;20557;-73
2023/02/04 08:51:11;;;;;;;37.00;14.90;;;7.30;99.90;;;;;;5037312;28;20487;-71
2023/02/04 08:53:39;;;;;;;36.50;16.80;;;7.50;99.90;;;;;;5043048;28;20965;-72
2023/02/04 08:56:06;;;;;;;37.67;17.00;;;7.50;99.90;;;;;;5041885;28;22477;-72
2023/02/04 08:58:33;;;;;;;41.93;16.00;;;7.40;99.90;;;;;;5035839;28;20479;-73
2023/02/04 09:01:01;;;;;;;35.90;15.40;;;7.30;99.90;;;;;;5040247;28;20495;-72
2023/02/04 09:03:28;;;;;;;43.00;15.63;;;7.50;99.90;;;;;;5037564;28;20731;-71
2023/02/04 09:05:55;;;;;;;48.77;16.30;;;7.50;99.90;;;;;;5038304;28;20463;-75
2023/02/04 09:08:22;;;;;;;32.87;14.60;;;7.60;99.90;;;;;;5034014;28;20468;-73
2023/02/04 09:10:48;;;;;;;36.27;16.10;;;7.60;99.90;;;;;;5032603;28;20483;-73
2023/02/04 09:13:15;;;;;;;33.13;15.60;;;7.70;99.90;;;;;;5037989;28;20830;-74
2023/02/04 09:15:43;;;;;;;50.50;15.33;;;7.80;99.90;;;;;;5039568;28;20547;-74
2023/02/04 09:18:15;;;;;;;36.60;13.57;;;7.80;99.90;;;;;;5042558;28;20493;-73
2023/02/04 09:20:42;;;;;;;32.13;14.00;;;7.90;99.90;;;;;;5038404;28;20456;-72
2023/02/04 09:23:10;;;;;;;37.77;15.80;;;7.90;99.90;;;;;;5041574;28;20469;-72
2023/02/04 09:25:38;;;;;;;36.13;16.67;;;7.80;99.90;;;;;;5041328;28;20460;-72
2023/02/04 09:28:05;;;;;;;31.90;14.87;;;7.90;99.90;;;;;;5035422;28;20894;-75
2023/02/04 09:30:33;;;;;;;34.80;16.40;;;8.20;99.90;;;;;;5036669;28;20472;-74
2023/02/04 09:33:00;;;;;;;36.07;16.60;;;8.30;99.90;;;;;;5034541;28;20479;-75
2023/02/04 09:35:28;;;;;;;32.93;15.63;;;8.30;99.90;;;;;;5038678;28;20472;-73
2023/02/04 09:37:55;;;;;;;29.17;16.80;;;8.50;99.90;;;;;;5037597;28;20497;-74
2023/02/04 09:40:23;;;;;;;29.70;15.83;;;8.70;99.90;;;;;;5041537;28;20460;-71
2023/02/04 09:42:51;;;;;;;33.87;16.60;;;8.50;99.90;;;;;;5036244;28;20471;-72
2023/02/04 09:45:21;;;;;;;53.90;16.63;;;8.50;99.90;;;;;;5041188;28;20479;-72
2023/02/04 09:47:49;;;;;;;38.93;17.00;;;8.50;99.90;;;;;;5042977;28;20533;-73
2023/02/04 09:50:17;;;;;;;34.53;14.50;;;8.70;99.90;;;;;;5039639;28;20468;-74
2023/02/04 09:52:47;;;;;;;30.17;16.70;;;8.70;99.90;;;;;;5033177;28;20529;-72
2023/02/04 09:55:14;;;;;;;29.47;13.87;;;8.90;99.90;;;;;;5041009;28;20464;-75
2023/02/04 09:57:42;;;;;;;34.03;15.53;;;9.00;99.90;;;;;;5037142;28;20488;-71
2023/02/04 10:00:16;;;;;;;47.00;15.57;;;9.20;99.90;;;;;;5038829;28;20831;-75
2023/02/04 10:02:43;;;;;;;38.53;15.20;;;9.10;99.90;;;;;;5045646;28;20468;-73
2023/02/04 10:05:14;;;;;;;44.43;15.90;;;9.00;99.90;;;;;;5042260;28;20546;-74
2023/02/04 10:07:41;;;;;;;35.70;16.20;;;9.20;99.90;;;;;;5042207;28;20460;-73
2023/02/04 10:10:16;;;;;;;35.20;17.60;;;9.20;99.90;;;;;;5046030;28;20460;-75
2023/02/04 10:12:43;;;;;;;40.43;15.47;;;9.30;99.90;;;;;;5035977;28;20494;-74
2023/02/04 10:15:14;;;;;;;38.77;15.90;;;9.40;99.90;;;;;;5042549;28;20951;-72
2023/02/04 10:17:41;;;;;;;37.47;17.97;;;9.60;99.90;;;;;;5043537;28;20460;-75
2023/02/04 10:20:13;;;;;;;30.63;15.90;;;9.80;99.90;;;;;;5039380;28;20472;-74
2023/02/04 10:22:41;;;;;;;47.30;18.37;;;10.00;99.90;;;;;;5040941;28;20550;-71
2023/02/04 10:25:14;;;;;;;33.33;16.83;;;10.00;99.90;;;;;;5037979;28;20478;-75
2023/02/04 10:27:49;;;;;;;33.27;17.10;;;10.20;99.90;;;;;;5040173;28;20471;-72
2023/02/04 10:30:20;;;;;;;31.50;17.50;;;10.40;99.90;;;;;;5041299;28;20888;-73
2023/02/04 10:32:47;;;;;;;37.70;16.97;;;10.40;99.90;;;;;;5042956;28;20489;-76
2023/02/04 10:35:15;;;;;;;31.43;17.30;;;10.50;99.90;;;;;;5039725;28;20456;-73
2023/02/04 10:37:42;;;;;;;35.43;17.37;;;10.50;99.90;;;;;;5031618;28;20488;-75
2023/02/04 10:43:10;;;;;;;36.17;18.83;;;10.60;99.90;;;;;;5074298;27;20551;-71
2023/02/04 10:45:38;;;;;;;31.23;17.30;;;10.80;99.90;;;;;;5055182;28;20721;-72
2023/02/04 10:48:06;;;;;;;22.93;17.90;;;11.00;99.90;;;;;;5058829;28;20577;-73
2023/02/04 10:50:34;;;;;;;40.80;17.10;;;11.00;99.90;;;;;;5056958;28;20463;-73
2023/02/04 10:55:43;;;;;;;29.47;17.93;;;11.40;99.90;;;;;;5049320;28;20452;-71
2023/02/04 10:58:14;;;;;;;29.33;16.90;;;11.40;99.90;;;;;;5055498;28;20487;-72
2023/02/04 11:00:41;;;;;;;23.73;17.30;;;11.70;99.90;;;;;;5056296;28;20459;-74
2023/02/04 11:03:11;;;;;;;32.23;18.53;;;11.60;99.90;;;;;;5049192;28;20472;-73
2023/02/04 11:05:38;;;;;;;29.57;17.70;;;11.50;99.90;;;;;;5048957;28;20466;-71
2023/02/04 11:08:20;;;;;;;28.67;17.60;;;10.90;99.90;;;;;;5047043;28;20460;-70
2023/02/04 11:10:51;;;;;;;40.17;17.60;;;11.20;99.90;;;;;;5045586;28;20474;-73
2023/02/04 11:13:25;;;;;;;36.73;18.57;;;11.30;99.90;;;;;;5053373;28;20768;-71
2023/02/04 11:16:10;;;;;;;28.87;18.10;;;11.60;99.90;;;;;;5045494;28;20558;-73
2023/02/04 11:18:51;;;;;;;28.33;19.93;;;11.80;99.90;;;;;;5044606;28;20455;-72
2023/02/04 11:21:27;;;;;;;30.97;17.57;;;11.80;99.90;;;;;;5048209;28;20491;-72
2023/02/04 11:24:05;;;;;;;31.70;17.80;;;11.30;99.90;;;;;;5046640;28;20464;-70
2023/02/04 11:26:34;;;;;;;27.33;17.63;;;11.40;99.90;;;;;;5042279;28;20455;-70
2023/02/04 11:29:26;;;;;;;35.93;18.00;;;11.20;99.90;;;;;;5048068;28;20463;-71
2023/02/04 11:32:05;;;;;;;37.87;18.90;;;11.00;99.90;;;;;;5049012;28;20476;-71
2023/02/04 11:34:46;;;;;;;29.87;18.83;;;11.00;99.90;;;;;;5045953;28;20538;-71
2023/02/04 11:37:18;;;;;;;39.70;18.70;;;11.10;99.90;;;;;;5045164;28;20562;-72
2023/02/04 11:39:46;;;;;;;33.67;19.17;;;11.20;99.90;;;;;;5041701;28;20593;-70
2023/02/04 11:42:19;;;;;;;34.37;16.93;;;11.30;99.90;;;;;;5058032;28;20497;-70
2023/02/04 11:44:57;;;;;;;34.73;17.90;;;11.40;99.90;;;;;;5047365;28;20451;-72
2023/02/04 11:47:26;;;;;;;35.80;17.30;;;11.50;99.90;;;;;;5044913;28;20475;-71
2023/02/04 11:49:56;;;;;;;24.57;17.30;;;11.70;99.90;;;;;;5048081;28;20508;-73
2023/02/04 11:52:23;;;;;;;36.23;17.30;;;12.00;99.90;;;;;;5055523;28;20462;-71
2023/02/04 11:55:08;;;;;;;28.30;16.97;;;12.50;99.90;;;;;;5041724;28;20827;-71
2023/02/04 11:57:39;;;;;;;37.33;17.23;;;12.50;99.90;;;;;;5038311;28;20456;-71
2023/02/04 12:00:14;;;;;;;27.13;17.83;;;12.90;99.90;;;;;;5038254;28;20571;-70
2023/02/04 12:02:43;;;;;;;34.83;18.23;;;13.10;99.90;;;;;;5033319;28;20925;-75
2023/02/04 12:05:12;;;;;;;31.10;18.10;;;13.10;99.90;;;;;;5032644;28;20878;-73
2023/02/04 12:07:39;;;;;;;20.10;16.90;;;13.20;99.90;;;;;;5033715;28;20678;-70
2023/02/04 12:10:14;;;;;;;28.53;17.47;;;13.00;99.90;;;;;;5037722;28;20997;-73
2023/02/04 12:12:43;;;;;;;33.60;17.90;;;13.20;99.90;;;;;;5054581;28;20929;-72
2023/02/04 12:15:20;;;;;;;33.17;18.73;;;13.10;99.90;;;;;;5037024;28;20468;-70
2023/02/04 12:17:59;;;;;;;29.00;18.00;;;13.40;99.90;;;;;;5034149;28;20830;-71
2023/02/04 12:20:26;;;;;;;30.70;18.27;;;13.80;99.90;;;;;;5032572;28;20541;-71
2023/02/04 12:22:54;;;;;;;29.83;16.87;;;14.60;99.90;;;;;;5039478;28;20547;-70
2023/02/04 12:25:21;;;;;;;36.50;18.73;;;15.20;99.90;;;;;;5036807;28;21127;-73
2023/02/04 12:27:48;;;;;;;26.97;17.53;;;15.50;99.90;;;;;;5027977;28;20505;-69
2023/02/04 12:30:17;;;;;;;28.00;17.37;;;15.50;99.90;;;;;;5029838;28;20479;-72
2023/02/04 12:32:44;;;;;;;21.70;17.57;;;15.80;99.90;;;;;;5034916;28;20481;-70
2023/02/04 12:35:11;;;;;;;23.73;16.43;;;16.10;99.90;;;;;;5033469;28;20821;-70
2023/02/04 12:37:37;;;;;;;20.90;17.23;;;16.00;99.90;;;;;;5038712;28;20499;-71
2023/02/04 12:40:05;;;;;;;24.20;17.70;;;16.20;99.90;;;;;;5040557;28;20468;-71
2023/02/04 12:42:33;;;;;;;27.23;17.43;;;16.20;99.90;;;;;;5038785;28;20503;-72
2023/02/04 12:45:00;;;;;;;20.47;18.30;;;16.00;99.90;;;;;;5028622;28;21134;-70
2023/02/04 12:47:28;;;;;;;24.17;17.70;;;15.10;99.90;;;;;;5034322;28;20476;-72
2023/02/04 12:49:55;;;;;;;31.00;18.10;;;14.40;99.90;;;;;;5036865;28;20959;-71
2023/02/04 12:52:22;;;;;;;26.17;17.10;;;14.30;99.90;;;;;;5035098;28;20460;-70